METAR AND TAF INFORMATION

METAR FOR LPMA
ADDS - METARS form results

(2145 UTC 12 April 2021)
Data provider http://aviationweather.gov/metar/data/
 
METAR text: LPMA 122130Z 26004KT 230V290 9999 FEW015 20/17 Q1019
Conditions at: LPMA (FUNCHAL/MADEIRA , PT) observed 2130 UTC 12 April 2021
Temperature: 20.0°C (68°F)
Dewpoint: 17.0°C (63°F) [RH = 83%]
Pressure (altimeter): 30.09 inches Hg (1019.0 mb)
Winds: from the W (260 degrees) at 5 MPH (4 knots; 2.1 m/s)
Visibility: 6 or more miles (10+ km)
Ceiling: at least 12,000 feet AGL
Clouds: few clouds at 1500 feet AGL
Weather: no significant weather observed at this time

METAR text: LPMA 122100Z 24005KT 190V270 9999 FEW015 20/17 Q1019
Conditions at: LPMA (FUNCHAL/MADEIRA , PT) observed 2100 UTC 12 April 2021
Temperature: 20.0°C (68°F)
Dewpoint: 17.0°C (63°F) [RH = 83%]
Pressure (altimeter): 30.09 inches Hg (1019.0 mb)
Winds: from the WSW (240 degrees) at 6 MPH (5 knots; 2.6 m/s)
Visibility: 6 or more miles (10+ km)
Ceiling: at least 12,000 feet AGL
Clouds: few clouds at 1500 feet AGL
Weather: no significant weather observed at this time

Forecast for: LPMA (FUNCHAL/MADEIRA , PT)
Text: TAF LPMA 121700Z 1218/1318 21013KT 9999 FEW015 SCT050
Forecast period: 1800 UTC 12 April 2021 to 1800 UTC 13 April 2021
Forecast type: FROM: standard forecast or significant change
Winds: from the SSW (210 degrees) at 15 MPH (13 knots; 6.7 m/s)
Visibility: 6 or more miles (10+ km)
Ceiling: at least 12,000 feet AGL
Clouds: few clouds at 1500 feet AGL
scattered clouds at 5000 feet AGL
Weather: no significant weather forecast for this period
Text: TEMPO 1221/1318 6000 -RA SCT008 BKN013
Forecast period: 2100 UTC 12 April 2021 to 1800 UTC 13 April 2021
Forecast type: TEMPORARY: The following changes expected for less than half the time period
Visibility: 4 miles (6 km)
Ceiling: 1300 feet AGL
Clouds: scattered clouds at 800 feet AGL
broken clouds at 1300 feet AGL
Weather: -RA  (light rain)
Text: PROB30
Forecast period: 0300 to 1800 UTC 13 April 2021
Forecast type: TEMPORARY: The following changes expected for less than half the time period
Visibility: 1.86 miles (2.99 km)
Ceiling: 400 feet AGL
Clouds: broken clouds at 400 feet AGL
scattered clouds at 1500 feet AGL
Weather: TSRA  (rain associated with thunderstorm(s))

 

AIRPORT MAP

 

RUNWAY INFORMATION

Runway 05 Runway length 9110 ft Runway width 148 ft
Runway elevation 147 ft Runway displaced threshold 480 ft Runway heading 45
Runway 23 Runway length 9110 ft Runway width 148 ft
Runway elevation 192 ft Runway displaced threshold 490 ft Runway heading 225

 

AIRPORT FREQUENCIES

Type APP Name APP Frequency 119.2 MHZ
Type TWR Name TWR Frequency 118.35 MHZ

 

AIRPORT NEAR NAVIGATION AIDS

Type VOR-DME Name Madeira Frequency 112200 KHZ
Type NDB Name Madeira Frequency 318 KHZ